TimeCDT,TemperatureF,Dew PointF,Humidity,Sea Level PressureIn,VisibilityMPH,Wind Direction,Wind SpeedMPH,Gust SpeedMPH,PrecipitationIn,Events,Conditions,WindDirDegrees,DateUTC
12:15 AM,55.4,46.4,72,30.02,10.0,Calm,Calm,-,N/A,,Clear,0,2013-09-15 05:15:00
12:35 AM,53.6,46.4,77,30.02,10.0,Calm,Calm,-,N/A,,Clear,0,2013-09-15 05:35:00
12:55 AM,53.6,46.4,77,30.02,10.0,Calm,Calm,-,N/A,,Clear,0,2013-09-15 05:55:00
1:15 AM,53.6,46.4,77,30.02,10.0,Calm,Calm,-,N/A,,Clear,0,2013-09-15 06:15:00
1:35 AM,55.4,46.4,72,30.02,10.0,Calm,Calm,-,N/A,,Clear,0,2013-09-15 06:35:00
1:55 AM,53.6,48.2,82,30.02,10.0,Calm,Calm,-,N/A,,Clear,0,2013-09-15 06:55:00
2:15 AM,55.4,46.4,72,30.02,10.0,Calm,Calm,-,N/A,,Clear,0,2013-09-15 07:15:00
2:35 AM,55.4,46.4,72,30.02,10.0,Calm,Calm,-,N/A,,Mostly Cloudy,0,2013-09-15 07:35:00
2:55 AM,53.6,48.2,82,30.02,10.0,Calm,Calm,-,N/A,,Overcast,0,2013-09-15 07:55:00
3:15 AM,55.4,46.4,72,30.02,10.0,Calm,Calm,-,N/A,,Overcast,0,2013-09-15 08:15:00
3:35 AM,55.4,44.6,67,30.03,10.0,SW,3.5,-,N/A,,Overcast,230,2013-09-15 08:35:00
3:55 AM,55.4,44.6,67,30.03,10.0,SW,3.5,-,N/A,Rain,Light Rain,220,2013-09-15 08:55:00
4:15 AM,55.4,44.6,67,30.03,10.0,West,4.6,-,N/A,Rain,Rain,260,2013-09-15 09:15:00
4:35 AM,55.4,46.4,72,30.03,10.0,WSW,4.6,-,N/A,Rain,Light Rain,250,2013-09-15 09:35:00
4:55 AM,53.6,46.4,77,30.02,10.0,Calm,Calm,-,0.01,Rain,Light Rain,0,2013-09-15 09:55:00
5:15 AM,53.6,48.2,82,30.02,10.0,Calm,Calm,-,N/A,,Overcast,0,2013-09-15 10:15:00
5:35 AM,53.6,48.2,82,30.03,10.0,South,3.5,-,N/A,,Overcast,180,2013-09-15 10:35:00
5:55 AM,53.6,48.2,82,30.03,10.0,South,4.6,-,N/A,,Overcast,190,2013-09-15 10:55:00
6:15 AM,53.6,46.4,77,30.02,10.0,Calm,Calm,-,N/A,,Overcast,0,2013-09-15 11:15:00
6:35 AM,53.6,48.2,82,30.01,10.0,Calm,Calm,-,N/A,,Overcast,0,2013-09-15 11:35:00
6:55 AM,51.8,48.2,88,30.01,10.0,Calm,Calm,-,N/A,,Overcast,0,2013-09-15 11:55:00
7:15 AM,51.8,48.2,88,30.02,10.0,SSW,4.6,-,N/A,Rain,Light Rain,200,2013-09-15 12:15:00
7:35 AM,51.8,48.2,88,30.02,10.0,South,3.5,-,N/A,Rain,Light Rain,180,2013-09-15 12:35:00
7:55 AM,51.8,48.2,88,30.01,10.0,South,3.5,-,N/A,Rain,Light Rain,170,2013-09-15 12:55:00
8:15 AM,51.8,48.2,88,30.01,10.0,Calm,Calm,-,0.01,Rain,Rain,0,2013-09-15 13:15:00
8:35 AM,51.8,50.0,94,30.02,10.0,South,3.5,-,0.01,,Drizzle,170,2013-09-15 13:35:00
8:55 AM,51.8,50.0,94,30.02,10.0,Calm,Calm,-,0.01,,Light Drizzle,0,2013-09-15 13:55:00
9:15 AM,53.6,50.0,88,30.03,10.0,Calm,Calm,-,N/A,,Drizzle,0,2013-09-15 14:15:00
9:35 AM,53.6,50.0,88,30.03,10.0,Calm,Calm,-,N/A,,Overcast,0,2013-09-15 14:35:00
9:55 AM,53.6,50.0,88,30.03,10.0,ESE,4.6,-,0.01,Rain,Rain,120,2013-09-15 14:55:00
10:15 AM,53.6,50.0,88,30.02,5.0,East,3.5,-,0.02,Rain,Rain,90,2013-09-15 15:15:00
10:35 AM,53.6,50.0,88,30.03,5.0,Calm,Calm,-,0.05,Rain,Light Rain,0,2013-09-15 15:35:00
10:55 AM,53.6,50.0,88,30.03,5.0,ENE,5.8,-,0.07,Rain,Heavy Rain,60,2013-09-15 15:55:00
11:15 AM,53.6,50.0,88,30.03,4.0,ENE,5.8,-,0.01,Rain,Rain,70,2013-09-15 16:15:00
11:35 AM,53.6,50.0,88,30.03,3.0,ENE,4.6,-,0.06,Rain,Heavy Rain,60,2013-09-15 16:35:00
11:55 AM,53.6,51.8,94,30.03,5.0,ENE,5.8,-,0.10,Rain,Rain,70,2013-09-15 16:55:00
12:15 PM,53.6,51.8,94,30.03,5.0,ENE,6.9,-,0.02,Rain,Rain,60,2013-09-15 17:15:00
12:35 PM,53.6,51.8,94,30.03,7.0,East,3.5,-,0.05,Rain,Light Rain,80,2013-09-15 17:35:00
12:55 PM,53.6,51.8,94,30.03,7.0,East,4.6,-,0.08,Rain,Rain,100,2013-09-15 17:55:00
1:15 PM,53.6,51.8,94,30.03,10.0,East,3.5,-,0.02,Rain,Rain,90,2013-09-15 18:15:00
1:35 PM,53.6,51.8,94,30.03,5.0,Calm,Calm,-,0.06,Rain,Rain,0,2013-09-15 18:35:00
1:55 PM,53.6,51.8,94,30.03,10.0,Calm,Calm,-,0.07,Rain,Rain,0,2013-09-15 18:55:00
2:15 PM,53.6,51.8,94,30.04,10.0,Calm,Calm,-,N/A,,Light Drizzle,0,2013-09-15 19:15:00
2:35 PM,53.6,51.8,94,30.04,3.0,Calm,Calm,-,N/A,,Drizzle,0,2013-09-15 19:35:00
2:55 PM,55.4,51.8,88,30.04,10.0,ENE,3.5,-,N/A,,Overcast,60,2013-09-15 19:55:00
3:15 PM,55.4,53.6,94,30.05,10.0,North,4.6,-,N/A,,Overcast,360,2013-09-15 20:15:00
3:35 PM,57.2,51.8,82,30.05,10.0,NNE,5.8,-,N/A,,Overcast,20,2013-09-15 20:35:00
3:55 PM,57.2,51.8,82,30.05,10.0,North,4.6,-,N/A,,Overcast,10,2013-09-15 20:55:00
4:15 PM,57.2,51.8,82,30.06,10.0,North,4.6,-,N/A,,Overcast,360,2013-09-15 21:15:00
4:35 PM,59.0,51.8,77,30.06,10.0,North,5.8,-,N/A,,Overcast,360,2013-09-15 21:35:00
4:55 PM,59.0,51.8,77,30.07,10.0,North,10.4,-,N/A,,Mostly Cloudy,10,2013-09-15 21:55:00
5:15 PM,59.0,51.8,77,30.08,10.0,North,8.1,-,N/A,,Mostly Cloudy,10,2013-09-15 22:15:00
5:35 PM,60.8,51.8,72,30.08,10.0,NNE,10.4,16.1,N/A,,Mostly Cloudy,30,2013-09-15 22:35:00
5:55 PM,59.0,51.8,77,30.09,10.0,NNE,5.8,-,N/A,,Scattered Clouds,20,2013-09-15 22:55:00
6:15 PM,59.0,51.8,77,30.10,10.0,NNE,4.6,-,N/A,,Scattered Clouds,20,2013-09-15 23:15:00
6:35 PM,59.0,51.8,77,30.11,10.0,NNE,5.8,-,N/A,,Scattered Clouds,30,2013-09-15 23:35:00
6:55 PM,57.2,51.8,82,30.11,10.0,NNE,3.5,-,N/A,,Clear,20,2013-09-15 23:55:00
7:15 PM,55.4,51.8,88,30.12,10.0,Calm,Calm,-,N/A,,Clear,0,2013-09-16 00:15:00
7:35 PM,55.4,51.8,88,30.14,10.0,Calm,Calm,-,N/A,,Clear,0,2013-09-16 00:35:00
7:55 PM,53.6,51.8,94,30.15,10.0,Calm,Calm,-,N/A,,Mostly Cloudy,0,2013-09-16 00:55:00
8:15 PM,53.6,51.8,94,30.16,10.0,Calm,Calm,-,N/A,,Overcast,0,2013-09-16 01:15:00
8:55 PM,55.4,51.8,88,30.18,10.0,NNE,10.4,17.3,N/A,,Overcast,20,2013-09-16 01:55:00
9:35 PM,53.6,50.0,88,30.20,10.0,NNE,10.4,-,N/A,,Overcast,20,2013-09-16 02:35:00
9:55 PM,53.6,48.2,82,30.20,10.0,NNE,10.4,17.3,N/A,,Overcast,20,2013-09-16 02:55:00
10:15 PM,53.6,46.4,77,30.21,10.0,NNE,9.2,-,N/A,,Overcast,30,2013-09-16 03:15:00
10:35 PM,53.6,46.4,77,30.22,10.0,NNE,11.5,-,N/A,,Overcast,20,2013-09-16 03:35:00
10:55 PM,51.8,44.6,76,30.23,10.0,NNE,10.4,-,N/A,,Overcast,30,2013-09-16 03:55:00
11:15 PM,51.8,44.6,76,30.23,10.0,North,11.5,-,N/A,,Overcast,10,2013-09-16 04:15:00
11:35 PM,51.8,44.6,76,30.24,10.0,NE,11.5,-,N/A,,Overcast,40,2013-09-16 04:35:00
11:55 PM,50.0,42.8,76,30.25,10.0,NNE,9.2,17.3,N/A,,Overcast,30,2013-09-16 04:55:00